sensor_id;sensor_type;location;lat;lon;timestamp;pressure;altitude;pressure_sealevel;temperature;humidity
81299;BME280;70766;53.170;18.160;2024-03-17T00:01:42;101243.11;;;3.52;97.26
81299;BME280;70766;53.170;18.160;2024-03-17T00:04:10;101233.81;;;3.51;96.33
81299;BME280;70766;53.170;18.160;2024-03-17T00:06:38;101234.68;;;3.51;95.87
81299;BME280;70766;53.170;18.160;2024-03-17T00:09:06;101237.36;;;3.51;95.25
81299;BME280;70766;53.170;18.160;2024-03-17T00:11:33;101234.15;;;3.49;94.67
81299;BME280;70766;53.170;18.160;2024-03-17T00:14:02;101233.36;;;3.49;93.49
81299;BME280;70766;53.170;18.160;2024-03-17T00:16:30;101231.52;;;3.51;92.75
81299;BME280;70766;53.170;18.160;2024-03-17T00:18:58;101229.70;;;3.51;92.81
81299;BME280;70766;53.170;18.160;2024-03-17T00:21:26;101226.42;;;3.52;91.06
81299;BME280;70766;53.170;18.160;2024-03-17T00:23:54;101223.16;;;3.53;91.61
81299;BME280;70766;53.170;18.160;2024-03-17T00:26:22;101223.46;;;3.52;90.35
81299;BME280;70766;53.170;18.160;2024-03-17T00:28:51;101225.05;;;3.51;90.22
81299;BME280;70766;53.170;18.160;2024-03-17T00:31:19;101223.04;;;3.51;90.39
81299;BME280;70766;53.170;18.160;2024-03-17T00:33:47;101222.30;;;3.54;89.98
81299;BME280;70766;53.170;18.160;2024-03-17T00:36:16;101221.89;;;3.58;89.75
81299;BME280;70766;53.170;18.160;2024-03-17T00:38:43;101216.48;;;3.63;89.57
81299;BME280;70766;53.170;18.160;2024-03-17T00:41:11;101214.27;;;3.70;90.51
81299;BME280;70766;53.170;18.160;2024-03-17T00:43:39;101211.40;;;3.75;89.91
81299;BME280;70766;53.170;18.160;2024-03-17T00:46:07;101213.68;;;3.82;90.31
81299;BME280;70766;53.170;18.160;2024-03-17T00:48:35;101208.99;;;3.86;91.00
81299;BME280;70766;53.170;18.160;2024-03-17T00:51:03;101205.64;;;3.90;90.25
81299;BME280;70766;53.170;18.160;2024-03-17T00:53:31;101203.76;;;3.94;89.92
81299;BME280;70766;53.170;18.160;2024-03-17T00:55:59;101204.35;;;3.97;89.91
81299;BME280;70766;53.170;18.160;2024-03-17T00:58:28;101205.14;;;3.99;90.12
81299;BME280;70766;53.170;18.160;2024-03-17T01:00:56;101207.88;;;4.02;90.42
81299;BME280;70766;53.170;18.160;2024-03-17T01:03:24;101210.93;;;4.04;89.97
81299;BME280;70766;53.170;18.160;2024-03-17T01:05:52;101210.13;;;4.07;90.54
81299;BME280;70766;53.170;18.160;2024-03-17T01:08:20;101206.75;;;4.10;90.27
81299;BME280;70766;53.170;18.160;2024-03-17T01:10:48;101204.79;;;4.13;90.12
81299;BME280;70766;53.170;18.160;2024-03-17T01:13:19;101204.02;;;4.14;90.86
81299;BME280;70766;53.170;18.160;2024-03-17T01:15:51;101201.40;;;4.15;90.50
81299;BME280;70766;53.170;18.160;2024-03-17T01:18:19;101203.45;;;4.17;90.84
81299;BME280;70766;53.170;18.160;2024-03-17T01:20:47;101198.67;;;4.20;90.29
81299;BME280;70766;53.170;18.160;2024-03-17T01:23:15;101199.03;;;4.22;89.78
81299;BME280;70766;53.170;18.160;2024-03-17T01:25:43;101200.63;;;4.23;90.72
81299;BME280;70766;53.170;18.160;2024-03-17T01:28:11;101197.58;;;4.24;89.95
81299;BME280;70766;53.170;18.160;2024-03-17T01:30:38;101197.13;;;4.26;90.01
81299;BME280;70766;53.170;18.160;2024-03-17T01:33:07;101202.95;;;4.27;90.55
81299;BME280;70766;53.170;18.160;2024-03-17T01:35:37;101198.55;;;4.32;89.52
81299;BME280;70766;53.170;18.160;2024-03-17T01:38:04;101195.73;;;4.36;89.96
81299;BME280;70766;53.170;18.160;2024-03-17T01:40:32;101191.88;;;4.41;89.32
81299;BME280;70766;53.170;18.160;2024-03-17T01:43:00;101187.02;;;4.44;89.29
81299;BME280;70766;53.170;18.160;2024-03-17T01:45:32;101189.32;;;4.48;89.31
81299;BME280;70766;53.170;18.160;2024-03-17T01:48:02;101189.21;;;4.52;89.49
81299;BME280;70766;53.170;18.160;2024-03-17T01:50:35;101183.95;;;4.53;89.75
81299;BME280;70766;53.170;18.160;2024-03-17T01:53:05;101179.20;;;4.54;90.45
81299;BME280;70766;53.170;18.160;2024-03-17T01:55:37;101181.21;;;4.57;91.02
81299;BME280;70766;53.170;18.160;2024-03-17T01:58:05;101183.66;;;4.58;91.88
81299;BME280;70766;53.170;18.160;2024-03-17T02:00:40;101181.33;;;4.60;92.70
81299;BME280;70766;53.170;18.160;2024-03-17T02:03:08;101181.72;;;4.60;93.22
81299;BME280;70766;53.170;18.160;2024-03-17T02:05:36;101183.68;;;4.60;93.76
81299;BME280;70766;53.170;18.160;2024-03-17T02:08:07;101186.67;;;4.60;94.11
81299;BME280;70766;53.170;18.160;2024-03-17T02:10:35;101185.20;;;4.59;94.46
81299;BME280;70766;53.170;18.160;2024-03-17T02:13:04;101181.52;;;4.59;94.95
81299;BME280;70766;53.170;18.160;2024-03-17T02:15:33;101185.20;;;4.57;95.29
81299;BME280;70766;53.170;18.160;2024-03-17T02:18:01;101179.23;;;4.57;95.30
81299;BME280;70766;53.170;18.160;2024-03-17T02:20:29;101180.27;;;4.56;95.39
81299;BME280;70766;53.170;18.160;2024-03-17T02:23:15;101183.31;;;4.55;95.39
81299;BME280;70766;53.170;18.160;2024-03-17T02:25:43;101184.95;;;4.55;95.28
81299;BME280;70766;53.170;18.160;2024-03-17T02:28:13;101182.35;;;4.54;95.24
81299;BME280;70766;53.170;18.160;2024-03-17T02:30:41;101182.92;;;4.54;94.78
81299;BME280;70766;53.170;18.160;2024-03-17T02:33:10;101176.03;;;4.56;93.95
81299;BME280;70766;53.170;18.160;2024-03-17T02:35:38;101175.77;;;4.58;93.45
81299;BME280;70766;53.170;18.160;2024-03-17T02:38:05;101177.52;;;4.56;93.28
81299;BME280;70766;53.170;18.160;2024-03-17T02:40:35;101171.74;;;4.57;92.68
81299;BME280;70766;53.170;18.160;2024-03-17T02:43:03;101171.50;;;4.59;91.81
81299;BME280;70766;53.170;18.160;2024-03-17T02:45:31;101172.02;;;4.59;91.54
81299;BME280;70766;53.170;18.160;2024-03-17T02:47:59;101170.47;;;4.59;91.50
81299;BME280;70766;53.170;18.160;2024-03-17T02:50:27;101170.21;;;4.58;91.43
81299;BME280;70766;53.170;18.160;2024-03-17T02:52:55;101172.93;;;4.58;90.61
81299;BME280;70766;53.170;18.160;2024-03-17T02:55:23;101165.27;;;4.58;90.42
81299;BME280;70766;53.170;18.160;2024-03-17T02:57:51;101160.88;;;4.58;90.50
81299;BME280;70766;53.170;18.160;2024-03-17T03:00:19;101152.46;;;4.54;90.24
81299;BME280;70766;53.170;18.160;2024-03-17T03:02:47;101148.13;;;4.45;90.28
81299;BME280;70766;53.170;18.160;2024-03-17T03:05:15;101147.80;;;4.34;90.00
81299;BME280;70766;53.170;18.160;2024-03-17T03:07:43;101147.91;;;4.26;90.05
81299;BME280;70766;53.170;18.160;2024-03-17T03:10:11;101156.20;;;4.20;90.23
81299;BME280;70766;53.170;18.160;2024-03-17T03:12:39;101162.67;;;4.16;90.46
81299;BME280;70766;53.170;18.160;2024-03-17T03:15:07;101163.67;;;4.15;90.66
81299;BME280;70766;53.170;18.160;2024-03-17T03:17:35;101168.67;;;4.18;90.96
81299;BME280;70766;53.170;18.160;2024-03-17T03:20:04;101171.19;;;4.21;91.00
81299;BME280;70766;53.170;18.160;2024-03-17T03:22:33;101165.58;;;4.25;91.13
81299;BME280;70766;53.170;18.160;2024-03-17T03:25:01;101162.64;;;4.28;90.77
81299;BME280;70766;53.170;18.160;2024-03-17T03:27:30;101166.77;;;4.33;90.80
81299;BME280;70766;53.170;18.160;2024-03-17T03:29:58;101155.50;;;4.37;90.48
81299;BME280;70766;53.170;18.160;2024-03-17T03:32:27;101159.71;;;4.40;90.41
81299;BME280;70766;53.170;18.160;2024-03-17T03:34:55;101161.30;;;4.41;90.29
81299;BME280;70766;53.170;18.160;2024-03-17T03:37:23;101167.35;;;4.43;90.77
81299;BME280;70766;53.170;18.160;2024-03-17T03:39:51;101162.55;;;4.43;90.43
81299;BME280;70766;53.170;18.160;2024-03-17T03:42:19;101159.98;;;4.44;90.98
81299;BME280;70766;53.170;18.160;2024-03-17T03:44:46;101164.13;;;4.45;91.03
81299;BME280;70766;53.170;18.160;2024-03-17T03:47:16;101163.90;;;4.47;90.92
81299;BME280;70766;53.170;18.160;2024-03-17T03:49:44;101162.27;;;4.47;90.75
81299;BME280;70766;53.170;18.160;2024-03-17T03:52:13;101158.98;;;4.48;90.94
81299;BME280;70766;53.170;18.160;2024-03-17T03:54:40;101156.21;;;4.49;91.16
81299;BME280;70766;53.170;18.160;2024-03-17T03:57:08;101161.16;;;4.49;90.87
81299;BME280;70766;53.170;18.160;2024-03-17T03:59:36;101161.00;;;4.49;91.02
81299;BME280;70766;53.170;18.160;2024-03-17T04:02:04;101164.13;;;4.53;90.35
81299;BME280;70766;53.170;18.160;2024-03-17T04:04:32;101167.92;;;4.52;91.36
81299;BME280;70766;53.170;18.160;2024-03-17T04:07:01;101179.56;;;4.49;93.14
81299;BME280;70766;53.170;18.160;2024-03-17T04:09:29;101195.00;;;4.40;95.95
81299;BME280;70766;53.170;18.160;2024-03-17T04:11:57;101208.96;;;4.16;100.00
81299;BME280;70766;53.170;18.160;2024-03-17T04:14:25;101206.13;;;3.98;100.00
81299;BME280;70766;53.170;18.160;2024-03-17T04:16:52;101212.73;;;3.83;100.00
81299;BME280;70766;53.170;18.160;2024-03-17T04:19:20;101208.77;;;3.67;100.00
81299;BME280;70766;53.170;18.160;2024-03-17T04:21:48;101209.66;;;3.50;100.00
81299;BME280;70766;53.170;18.160;2024-03-17T04:24:16;101215.06;;;3.35;100.00
81299;BME280;70766;53.170;18.160;2024-03-17T04:26:44;101216.89;;;3.25;100.00
81299;BME280;70766;53.170;18.160;2024-03-17T04:29:12;101222.23;;;3.18;100.00
81299;BME280;70766;53.170;18.160;2024-03-17T04:31:40;101222.13;;;3.14;100.00
81299;BME280;70766;53.170;18.160;2024-03-17T04:34:09;101223.98;;;3.12;100.00
81299;BME280;70766;53.170;18.160;2024-03-17T04:36:37;101223.05;;;3.09;100.00
81299;BME280;70766;53.170;18.160;2024-03-17T04:39:05;101222.19;;;3.09;100.00
81299;BME280;70766;53.170;18.160;2024-03-17T04:41:35;101224.70;;;3.07;100.00
81299;BME280;70766;53.170;18.160;2024-03-17T04:44:05;101223.55;;;3.08;100.00
81299;BME280;70766;53.170;18.160;2024-03-17T04:46:34;101225.70;;;3.07;100.00
81299;BME280;70766;53.170;18.160;2024-03-17T04:49:02;101227.73;;;3.07;100.00
81299;BME280;70766;53.170;18.160;2024-03-17T04:51:31;101233.32;;;3.04;100.00
81299;BME280;70766;53.170;18.160;2024-03-17T04:54:01;101230.17;;;2.99;100.00
81299;BME280;70766;53.170;18.160;2024-03-17T04:56:33;101234.84;;;2.96;100.00
81299;BME280;70766;53.170;18.160;2024-03-17T04:59:01;101240.73;;;2.95;100.00
81299;BME280;70766;53.170;18.160;2024-03-17T05:01:29;101240.05;;;2.95;100.00
81299;BME280;70766;53.170;18.160;2024-03-17T05:03:59;101236.63;;;2.96;100.00
81299;BME280;70766;53.170;18.160;2024-03-17T05:06:26;101243.16;;;2.98;100.00
81299;BME280;70766;53.170;18.160;2024-03-17T05:08:54;101251.52;;;2.99;100.00
81299;BME280;70766;53.170;18.160;2024-03-17T05:11:23;101255.51;;;3.05;100.00
81299;BME280;70766;53.170;18.160;2024-03-17T05:13:51;101258.05;;;3.09;100.00
81299;BME280;70766;53.170;18.160;2024-03-17T05:16:19;101265.95;;;3.13;100.00
81299;BME280;70766;53.170;18.160;2024-03-17T05:18:50;101266.82;;;3.16;100.00
81299;BME280;70766;53.170;18.160;2024-03-17T05:21:18;101270.13;;;3.20;100.00
81299;BME280;70766;53.170;18.160;2024-03-17T05:23:45;101274.26;;;3.26;100.00
81299;BME280;70766;53.170;18.160;2024-03-17T05:26:14;101278.00;;;3.29;100.00
81299;BME280;70766;53.170;18.160;2024-03-17T05:28:41;101284.56;;;3.30;100.00
81299;BME280;70766;53.170;18.160;2024-03-17T05:31:09;101283.93;;;3.34;100.00
81299;BME280;70766;53.170;18.160;2024-03-17T05:33:37;101291.66;;;3.36;100.00
81299;BME280;70766;53.170;18.160;2024-03-17T05:36:06;101293.66;;;3.39;100.00
81299;BME280;70766;53.170;18.160;2024-03-17T05:38:34;101291.73;;;3.44;100.00
81299;BME280;70766;53.170;18.160;2024-03-17T05:41:03;101294.49;;;3.46;100.00
81299;BME280;70766;53.170;18.160;2024-03-17T05:43:36;101305.04;;;3.50;100.00
81299;BME280;70766;53.170;18.160;2024-03-17T05:46:07;101305.89;;;3.53;100.00
81299;BME280;70766;53.170;18.160;2024-03-17T05:48:37;101308.26;;;3.57;100.00
81299;BME280;70766;53.170;18.160;2024-03-17T05:51:10;101306.86;;;3.61;100.00
81299;BME280;70766;53.170;18.160;2024-03-17T05:53:40;101305.95;;;3.62;100.00
81299;BME280;70766;53.170;18.160;2024-03-17T05:56:08;101308.52;;;3.68;100.00
81299;BME280;70766;53.170;18.160;2024-03-17T05:58:37;101302.11;;;3.71;100.00
81299;BME280;70766;53.170;18.160;2024-03-17T06:01:06;101306.64;;;3.77;100.00
81299;BME280;70766;53.170;18.160;2024-03-17T06:03:39;101303.99;;;3.77;100.00
81299;BME280;70766;53.170;18.160;2024-03-17T06:06:07;101304.43;;;3.79;100.00
81299;BME280;70766;53.170;18.160;2024-03-17T06:08:36;101308.66;;;3.82;100.00
81299;BME280;70766;53.170;18.160;2024-03-17T06:11:06;101316.77;;;3.83;100.00
81299;BME280;70766;53.170;18.160;2024-03-17T06:13:36;101314.10;;;3.86;100.00
81299;BME280;70766;53.170;18.160;2024-03-17T06:16:04;101314.90;;;3.88;99.76
81299;BME280;70766;53.170;18.160;2024-03-17T06:18:33;101322.77;;;3.88;99.38
81299;BME280;70766;53.170;18.160;2024-03-17T06:21:05;101323.41;;;3.84;98.37
81299;BME280;70766;53.170;18.160;2024-03-17T06:23:33;101322.08;;;3.86;98.58
81299;BME280;70766;53.170;18.160;2024-03-17T06:26:01;101321.98;;;3.89;97.26
81299;BME280;70766;53.170;18.160;2024-03-17T06:28:33;101321.36;;;3.94;97.18
81299;BME280;70766;53.170;18.160;2024-03-17T06:31:01;101315.95;;;3.98;95.85
81299;BME280;70766;53.170;18.160;2024-03-17T06:33:32;101323.27;;;4.05;95.64
81299;BME280;70766;53.170;18.160;2024-03-17T06:36:04;101326.15;;;4.08;95.69
81299;BME280;70766;53.170;18.160;2024-03-17T06:38:33;101328.98;;;4.11;94.40
81299;BME280;70766;53.170;18.160;2024-03-17T06:41:00;101332.15;;;4.16;95.05
81299;BME280;70766;53.170;18.160;2024-03-17T06:43:28;101329.61;;;4.21;93.51
81299;BME280;70766;53.170;18.160;2024-03-17T06:45:58;101336.86;;;4.22;92.88
81299;BME280;70766;53.170;18.160;2024-03-17T06:48:27;101337.45;;;4.19;92.59
81299;BME280;70766;53.170;18.160;2024-03-17T06:50:55;101341.44;;;4.20;92.67
81299;BME280;70766;53.170;18.160;2024-03-17T06:53:24;101345.85;;;4.23;92.97
81299;BME280;70766;53.170;18.160;2024-03-17T06:55:58;101347.04;;;4.27;92.56
81299;BME280;70766;53.170;18.160;2024-03-17T06:58:27;101345.57;;;4.29;92.84
81299;BME280;70766;53.170;18.160;2024-03-17T07:03:30;101347.71;;;4.33;93.16
81299;BME280;70766;53.170;18.160;2024-03-17T07:06:01;101346.73;;;4.42;93.94
81299;BME280;70766;53.170;18.160;2024-03-17T07:08:31;101354.38;;;4.52;93.86
81299;BME280;70766;53.170;18.160;2024-03-17T07:11:06;101354.61;;;4.54;93.07
81299;BME280;70766;53.170;18.160;2024-03-17T07:13:36;101360.88;;;4.49;93.07
81299;BME280;70766;53.170;18.160;2024-03-17T07:16:05;101364.11;;;4.52;93.50
81299;BME280;70766;53.170;18.160;2024-03-17T07:18:34;101368.46;;;4.51;93.91
81299;BME280;70766;53.170;18.160;2024-03-17T07:21:03;101368.10;;;4.52;94.23
81299;BME280;70766;53.170;18.160;2024-03-17T07:23:32;101375.16;;;4.59;94.51
81299;BME280;70766;53.170;18.160;2024-03-17T07:26:01;101375.34;;;4.64;94.58
81299;BME280;70766;53.170;18.160;2024-03-17T07:28:30;101376.17;;;4.64;94.51
81299;BME280;70766;53.170;18.160;2024-03-17T07:30:59;101380.77;;;4.58;95.01
81299;BME280;70766;53.170;18.160;2024-03-17T07:33:30;101384.15;;;4.63;95.11
81299;BME280;70766;53.170;18.160;2024-03-17T07:35:58;101383.72;;;4.63;95.38
81299;BME280;70766;53.170;18.160;2024-03-17T07:38:29;101389.76;;;4.68;96.13
81299;BME280;70766;53.170;18.160;2024-03-17T07:41:08;101390.10;;;4.73;96.76
81299;BME280;70766;53.170;18.160;2024-03-17T07:43:37;101389.27;;;4.89;95.68
81299;BME280;70766;53.170;18.160;2024-03-17T07:46:06;101384.50;;;5.01;95.59
81299;BME280;70766;53.170;18.160;2024-03-17T07:48:36;101387.02;;;5.22;94.89
81299;BME280;70766;53.170;18.160;2024-03-17T07:51:07;101384.21;;;5.49;94.31
81299;BME280;70766;53.170;18.160;2024-03-17T07:53:37;101391.20;;;5.71;91.92
81299;BME280;70766;53.170;18.160;2024-03-17T07:56:07;101390.86;;;5.62;89.92
81299;BME280;70766;53.170;18.160;2024-03-17T07:58:40;101399.19;;;5.65;89.69
81299;BME280;70766;53.170;18.160;2024-03-17T08:01:11;101397.62;;;5.71;90.54
81299;BME280;70766;53.170;18.160;2024-03-17T08:03:40;101405.80;;;5.85;91.27
81299;BME280;70766;53.170;18.160;2024-03-17T08:06:09;101408.58;;;5.66;92.42
81299;BME280;70766;53.170;18.160;2024-03-17T08:08:38;101412.48;;;5.37;94.02
81299;BME280;70766;53.170;18.160;2024-03-17T08:11:07;101413.54;;;5.28;95.12
81299;BME280;70766;53.170;18.160;2024-03-17T08:13:35;101424.81;;;5.13;97.01
81299;BME280;70766;53.170;18.160;2024-03-17T08:16:06;101419.34;;;5.05;98.12
81299;BME280;70766;53.170;18.160;2024-03-17T08:18:35;101428.45;;;5.05;96.66
81299;BME280;70766;53.170;18.160;2024-03-17T08:21:03;101428.83;;;4.84;99.20
81299;BME280;70766;53.170;18.160;2024-03-17T08:23:34;101431.16;;;4.81;98.66
81299;BME280;70766;53.170;18.160;2024-03-17T08:26:05;101432.55;;;4.40;100.00
81299;BME280;70766;53.170;18.160;2024-03-17T08:28:33;101431.41;;;4.17;100.00
81299;BME280;70766;53.170;18.160;2024-03-17T08:31:02;101434.30;;;4.16;100.00
81299;BME280;70766;53.170;18.160;2024-03-17T08:33:31;101431.95;;;4.33;100.00
81299;BME280;70766;53.170;18.160;2024-03-17T08:36:04;101434.54;;;4.43;100.00
81299;BME280;70766;53.170;18.160;2024-03-17T08:38:36;101437.55;;;4.60;100.00
81299;BME280;70766;53.170;18.160;2024-03-17T08:41:06;101431.17;;;4.73;100.00
81299;BME280;70766;53.170;18.160;2024-03-17T08:43:36;101434.63;;;5.03;99.96
81299;BME280;70766;53.170;18.160;2024-03-17T08:46:07;101426.54;;;5.35;98.59
81299;BME280;70766;53.170;18.160;2024-03-17T08:48:37;101428.45;;;5.60;96.25
81299;BME280;70766;53.170;18.160;2024-03-17T08:51:07;101429.68;;;5.83;92.80
81299;BME280;70766;53.170;18.160;2024-03-17T08:53:35;101429.27;;;6.30;89.42
81299;BME280;70766;53.170;18.160;2024-03-17T08:56:05;101424.66;;;6.55;84.51
81299;BME280;70766;53.170;18.160;2024-03-17T08:58:36;101428.31;;;6.72;82.49
81299;BME280;70766;53.170;18.160;2024-03-17T09:01:05;101434.00;;;7.02;80.19
81299;BME280;70766;53.170;18.160;2024-03-17T09:03:35;101437.96;;;6.77;78.92
81299;BME280;70766;53.170;18.160;2024-03-17T09:06:03;101438.98;;;6.99;79.46
81299;BME280;70766;53.170;18.160;2024-03-17T09:08:32;101442.48;;;7.22;79.07
81299;BME280;70766;53.170;18.160;2024-03-17T09:11:01;101435.91;;;7.28;77.50
81299;BME280;70766;53.170;18.160;2024-03-17T09:13:29;101441.93;;;7.05;76.84
81299;BME280;70766;53.170;18.160;2024-03-17T09:15:58;101441.19;;;6.96;77.15
81299;BME280;70766;53.170;18.160;2024-03-17T09:18:31;101448.39;;;7.09;76.07
81299;BME280;70766;53.170;18.160;2024-03-17T09:21:01;101449.05;;;7.59;75.51
81299;BME280;70766;53.170;18.160;2024-03-17T09:23:30;101452.86;;;7.22;72.69
81299;BME280;70766;53.170;18.160;2024-03-17T09:26:03;101451.31;;;7.46;72.34
81299;BME280;70766;53.170;18.160;2024-03-17T09:28:33;101450.61;;;7.79;72.03
81299;BME280;70766;53.170;18.160;2024-03-17T09:31:01;101455.38;;;7.89;70.57
81299;BME280;70766;53.170;18.160;2024-03-17T09:33:30;101448.92;;;8.06;70.24
81299;BME280;70766;53.170;18.160;2024-03-17T09:36:00;101447.66;;;8.40;69.79
81299;BME280;70766;53.170;18.160;2024-03-17T09:38:29;101448.75;;;8.02;70.91
81299;BME280;70766;53.170;18.160;2024-03-17T09:40:57;101448.79;;;7.89;71.10
81299;BME280;70766;53.170;18.160;2024-03-17T09:43:25;101450.94;;;8.23;71.01
81299;BME280;70766;53.170;18.160;2024-03-17T09:45:54;101456.90;;;8.03;70.06
81299;BME280;70766;53.170;18.160;2024-03-17T09:48:27;101452.10;;;8.02;68.76
81299;BME280;70766;53.170;18.160;2024-03-17T09:50:58;101464.94;;;7.80;68.24
81299;BME280;70766;53.170;18.160;2024-03-17T09:53:36;101460.16;;;7.37;67.40
81299;BME280;70766;53.170;18.160;2024-03-17T09:56:14;101468.11;;;6.82;67.50
81299;BME280;70766;53.170;18.160;2024-03-17T09:58:44;101464.82;;;6.70;68.79
81299;BME280;70766;53.170;18.160;2024-03-17T10:01:13;101465.38;;;6.66;69.61
81299;BME280;70766;53.170;18.160;2024-03-17T10:03:44;101474.92;;;6.40;71.23
81299;BME280;70766;53.170;18.160;2024-03-17T10:06:14;101475.51;;;6.93;69.53
81299;BME280;70766;53.170;18.160;2024-03-17T10:08:52;101481.26;;;7.34;67.39
81299;BME280;70766;53.170;18.160;2024-03-17T10:11:22;101473.34;;;7.93;65.90
81299;BME280;70766;53.170;18.160;2024-03-17T10:14:02;101476.10;;;8.37;65.44
81299;BME280;70766;53.170;18.160;2024-03-17T10:16:32;101474.25;;;8.83;64.44
81299;BME280;70766;53.170;18.160;2024-03-17T10:21:45;101475.55;;;9.33;60.58
81299;BME280;70766;53.170;18.160;2024-03-17T10:24:20;101479.74;;;8.77;60.73
81299;BME280;70766;53.170;18.160;2024-03-17T10:26:54;101490.55;;;8.73;61.41
81299;BME280;70766;53.170;18.160;2024-03-17T10:29:33;101491.07;;;8.50;61.88
81299;BME280;70766;53.170;18.160;2024-03-17T10:32:14;101500.45;;;7.59;63.60
81299;BME280;70766;53.170;18.160;2024-03-17T10:34:45;101506.98;;;6.50;69.49
81299;BME280;70766;53.170;18.160;2024-03-17T10:37:17;101512.77;;;5.80;74.57
81299;BME280;70766;53.170;18.160;2024-03-17T10:39:55;101527.77;;;4.95;77.72
81299;BME280;70766;53.170;18.160;2024-03-17T10:42:25;101526.13;;;4.37;78.12
81299;BME280;70766;53.170;18.160;2024-03-17T10:44:56;101530.27;;;4.21;79.86
81299;BME280;70766;53.170;18.160;2024-03-17T10:47:26;101531.30;;;4.40;78.73
81299;BME280;70766;53.170;18.160;2024-03-17T10:49:55;101534.66;;;4.69;77.68
81299;BME280;70766;53.170;18.160;2024-03-17T10:52:23;101534.29;;;4.91;77.20
81299;BME280;70766;53.170;18.160;2024-03-17T10:55:20;101529.64;;;5.16;76.97
81299;BME280;70766;53.170;18.160;2024-03-17T10:57:50;101537.77;;;5.41;76.29
81299;BME280;70766;53.170;18.160;2024-03-17T11:00:20;101532.77;;;5.60;74.53
81299;BME280;70766;53.170;18.160;2024-03-17T11:02:52;101531.71;;;5.63;73.51
81299;BME280;70766;53.170;18.160;2024-03-17T11:05:24;101533.96;;;5.38;74.15
81299;BME280;70766;53.170;18.160;2024-03-17T11:07:53;101539.36;;;5.34;74.61
81299;BME280;70766;53.170;18.160;2024-03-17T11:10:26;101537.85;;;5.19;74.38
81299;BME280;70766;53.170;18.160;2024-03-17T11:20:39;101542.08;;;5.49;72.26
81299;BME280;70766;53.170;18.160;2024-03-17T11:23:08;101548.16;;;5.48;72.86
81299;BME280;70766;53.170;18.160;2024-03-17T11:25:39;101550.06;;;5.46;73.63
81299;BME280;70766;53.170;18.160;2024-03-17T11:28:09;101549.55;;;5.36;74.05
81299;BME280;70766;53.170;18.160;2024-03-17T11:46:42;101556.89;;;5.26;75.00
81299;BME280;70766;53.170;18.160;2024-03-17T11:49:36;101561.23;;;5.39;73.54
81299;BME280;70766;53.170;18.160;2024-03-17T11:52:09;101561.13;;;5.17;72.60
81299;BME280;70766;53.170;18.160;2024-03-17T11:54:45;101566.51;;;5.24;73.76
81299;BME280;70766;53.170;18.160;2024-03-17T11:57:20;101565.65;;;5.51;72.87
81299;BME280;70766;53.170;18.160;2024-03-17T11:59:54;101566.30;;;5.57;72.71
81299;BME280;70766;53.170;18.160;2024-03-17T12:02:30;101567.46;;;5.38;72.88
81299;BME280;70766;53.170;18.160;2024-03-17T12:05:01;101568.85;;;5.27;74.57
81299;BME280;70766;53.170;18.160;2024-03-17T12:07:29;101569.02;;;5.24;76.32
81299;BME280;70766;53.170;18.160;2024-03-17T12:09:58;101567.68;;;5.17;78.54
81299;BME280;70766;53.170;18.160;2024-03-17T12:12:28;101572.15;;;5.01;79.68
81299;BME280;70766;53.170;18.160;2024-03-17T12:15:05;101573.77;;;5.32;79.19
81299;BME280;70766;53.170;18.160;2024-03-17T12:17:42;101577.48;;;4.87;81.55
81299;BME280;70766;53.170;18.160;2024-03-17T12:20:20;101581.17;;;4.44;82.96
81299;BME280;70766;53.170;18.160;2024-03-17T12:22:49;101584.54;;;4.11;85.89
81299;BME280;70766;53.170;18.160;2024-03-17T12:25:19;101591.07;;;3.92;88.09
81299;BME280;70766;53.170;18.160;2024-03-17T12:27:49;101592.06;;;4.04;84.72
81299;BME280;70766;53.170;18.160;2024-03-17T12:30:17;101588.73;;;3.97;84.38
81299;BME280;70766;53.170;18.160;2024-03-17T12:32:46;101589.80;;;4.18;82.34
81299;BME280;70766;53.170;18.160;2024-03-17T12:35:16;101586.80;;;4.29;80.16
81299;BME280;70766;53.170;18.160;2024-03-17T12:37:45;101583.18;;;4.53;79.68
81299;BME280;70766;53.170;18.160;2024-03-17T12:40:21;101583.37;;;4.77;78.38
81299;BME280;70766;53.170;18.160;2024-03-17T12:42:50;101585.20;;;4.88;78.38
81299;BME280;70766;53.170;18.160;2024-03-17T12:45:23;101583.21;;;5.16;77.57
81299;BME280;70766;53.170;18.160;2024-03-17T12:47:51;101583.30;;;5.12;75.60
81299;BME280;70766;53.170;18.160;2024-03-17T12:50:20;101582.10;;;4.96;75.70
81299;BME280;70766;53.170;18.160;2024-03-17T12:52:52;101583.61;;;4.89;76.12
81299;BME280;70766;53.170;18.160;2024-03-17T12:55:22;101587.02;;;4.87;76.08
81299;BME280;70766;53.170;18.160;2024-03-17T12:58:10;101590.25;;;4.72;75.28
81299;BME280;70766;53.170;18.160;2024-03-17T13:01:01;101595.48;;;4.59;75.17
81299;BME280;70766;53.170;18.160;2024-03-17T13:03:31;101601.44;;;4.23;75.80
81299;BME280;70766;53.170;18.160;2024-03-17T13:06:03;101608.91;;;3.97;78.13
81299;BME280;70766;53.170;18.160;2024-03-17T13:08:32;101616.80;;;3.86;82.29
81299;BME280;70766;53.170;18.160;2024-03-17T13:11:00;101621.41;;;3.49;86.29
81299;BME280;70766;53.170;18.160;2024-03-17T13:13:31;101622.69;;;3.49;87.04
81299;BME280;70766;53.170;18.160;2024-03-17T13:15:59;101624.11;;;3.37;88.07
81299;BME280;70766;53.170;18.160;2024-03-17T13:18:27;101630.20;;;3.43;87.52
81299;BME280;70766;53.170;18.160;2024-03-17T13:20:55;101623.91;;;3.37;87.35
81299;BME280;70766;53.170;18.160;2024-03-17T13:23:26;101628.55;;;3.25;88.51
81299;BME280;70766;53.170;18.160;2024-03-17T13:25:54;101631.98;;;3.17;91.22
81299;BME280;70766;53.170;18.160;2024-03-17T13:28:21;101633.87;;;2.83;95.97
81299;BME280;70766;53.170;18.160;2024-03-17T13:30:49;101640.90;;;2.72;98.63